Startpagina
METAR-TAF:

METAR-TAF

Vliegvelden :

Pittsburgh, Pennsylvania, Verenigde Staten

Pittsburgh International Airport

breedte: 40-30-14N, lengte: 080-15-59W, hoogte: 366 m

Actueel weer

Dit bericht is 50 minuten geleden gemaakt, om 12:51 UTC
Weinig wind
Temperatuur 12°C
Vochtigheid 94%
Druk 1026 hPa
Zicht: 16.1 km
Gebroken wolken op 25000 ft

METAR: KPIT 221251Z 00000KT 10SM BKN250 12/11 A3030 RMK AO2 SLP267 T01220111

Tijdstip: 09:41 (13:41 UTC)

Verwachting

Dit bericht is 2 uur en het 21 minuten geleden gemaakt, om 11:20 UTC
Verwachting geldig van 22 om 12 UTC tot 23 om 18 UTC
Wind 5 kt uit het zuidzuidoosten
Zicht: 10 km
Gebroken wolken op 25000 ft
Van 23 om 1200 UTC
Wind 6 kt uit het zuidzuidoosten
Zicht: 10 km
Gebroken wolken op 4000 ft

TAF: KPIT 221120Z 2212/2318 15005KT P6SM BKN250 FM231200 15006KT P6SM BKN040

Waarnemingen en weersverwachtingen van meer dan 4000 vliegvelden (METAR en TAF).

De beschikbare stations zijn de gele en rode punten op de kaart.

Ga met uw muis naar het station om de naam te zien.

Klik dan om waarnemingen en weersverwachtingen te zien.

kaart wijzigen: klik op de groene knoppen met een zwart kruis om in te zoomen, op de groene knop met een streepje om uit te zoomen of op de groene pijlen voor aangrenzende kaarten.


METAR-TAF: